BCS4TB LEBL-GMTT
Flight info
| Callsign | BCS4TB |
|---|---|
| Flight time | N/A |
| Altitude | 37000 |
| Route | LOTOS M985 BAZAS DCT VIBAS M985 PIMOS N869 GALTO M143 LAMAD |
| Aircraft | A306/H-SDE3FGHIRWY/LB1 |
Departure
| Time | 2026-05-07 15:54 |
|---|---|
| Airport | Josep Tarradellas Barcelona-El Prat Airport (LEBL) |
Arrival
| Time | N/A |
|---|---|
| Airport | Tangier Ibn Battuta Airport (GMTT) |
| Time | Latitude | Longitude | Altitude | Speed | Heading |
|---|---|---|---|---|---|
| 2026-05-07 15:35 | 41.29938 | 2.06812 | 25 ft | 0 kts | 337° |
| 2026-05-07 15:46 | 41.29913 | 2.06828 | 29 ft | 4 kts | 331° |
| 2026-05-07 15:46 | 41.29890 | 2.06846 | 26 ft | 4 kts | 320° |
| 2026-05-07 15:46 | 41.29873 | 2.06872 | 28 ft | 4 kts | 286° |
| 2026-05-07 15:47 | 41.29872 | 2.06890 | 28 ft | 0 kts | 246° |
| 2026-05-07 15:49 | 41.29857 | 2.06847 | 26 ft | 8 kts | 246° |
| 2026-05-07 15:49 | 41.29836 | 2.06785 | 28 ft | 7 kts | 246° |
| 2026-05-07 15:50 | 41.29792 | 2.06735 | 26 ft | 6 kts | 194° |
| 2026-05-07 15:50 | 41.29720 | 2.06759 | 28 ft | 14 kts | 155° |
| 2026-05-07 15:50 | 41.29640 | 2.06822 | 27 ft | 13 kts | 139° |
| 2026-05-07 15:50 | 41.29598 | 2.06906 | 24 ft | 9 kts | 139° |
| 2026-05-07 15:51 | 41.29547 | 2.06945 | 26 ft | 8 kts | 154° |
| 2026-05-07 15:51 | 41.29531 | 2.06955 | 26 ft | 0 kts | 155° |
| 2026-05-07 15:52 | 41.29527 | 2.06958 | 27 ft | 5 kts | 155° |
| 2026-05-07 15:53 | 41.29476 | 2.06996 | 26 ft | 9 kts | 148° |
| 2026-05-07 15:53 | 41.29447 | 2.07093 | 24 ft | 13 kts | 78° |
| 2026-05-07 15:53 | 41.29472 | 2.07162 | 26 ft | 2 kts | 65° |
| 2026-05-07 15:53 | 41.29476 | 2.07175 | 26 ft | 3 kts | 65° |
| 2026-05-07 15:54 | 41.29595 | 2.07520 | 28 ft | 81 kts | 66° |
| 2026-05-07 15:54 | 41.29927 | 2.08483 | 27 ft | 146 kts | 65° |
| 2026-05-07 15:54 | 41.30377 | 2.09828 | 617 ft | 160 kts | 70° |
| 2026-05-07 15:54 | 41.30811 | 2.11144 | 1658 ft | 157 kts | 69° |
| 2026-05-07 15:55 | 41.31243 | 2.12483 | 2608 ft | 161 kts | 68° |
| 2026-05-07 15:55 | 41.31753 | 2.13960 | 3138 ft | 192 kts | 66° |
| 2026-05-07 15:55 | 41.32346 | 2.15645 | 3834 ft | 207 kts | 66° |
| 2026-05-07 15:55 | 41.33047 | 2.17407 | 4448 ft | 231 kts | 57° |
| 2026-05-07 15:56 | 41.34156 | 2.19147 | 5017 ft | 257 kts | 50° |
| 2026-05-07 15:56 | 41.35331 | 2.20973 | 6029 ft | 262 kts | 55° |
| 2026-05-07 15:56 | 41.36186 | 2.23114 | 7095 ft | 264 kts | 72° |
| 2026-05-07 15:56 | 41.36404 | 2.25559 | 8062 ft | 273 kts | 96° |
| 2026-05-07 15:57 | 41.35734 | 2.27927 | 9095 ft | 280 kts | 126° |
| 2026-05-07 15:57 | 41.34292 | 2.29683 | 10085 ft | 285 kts | 144° |
| 2026-05-07 15:57 | 41.32600 | 2.31212 | 10661 ft | 305 kts | 147° |
| 2026-05-07 15:57 | 41.30758 | 2.32814 | 11031 ft | 327 kts | 147° |
| 2026-05-07 15:58 | 41.28804 | 2.34527 | 11388 ft | 347 kts | 147° |
| 2026-05-07 15:58 | 41.26743 | 2.36355 | 11719 ft | 365 kts | 147° |
| 2026-05-07 15:58 | 41.24593 | 2.38270 | 12148 ft | 377 kts | 147° |
| 2026-05-07 15:58 | 41.22396 | 2.40230 | 12795 ft | 383 kts | 147° |
| 2026-05-07 15:59 | 41.20202 | 2.42186 | 13487 ft | 387 kts | 148° |
| 2026-05-07 15:59 | 41.17797 | 2.43905 | 14151 ft | 389 kts | 159° |
| 2026-05-07 15:59 | 41.15218 | 2.44833 | 14782 ft | 391 kts | 173° |
| 2026-05-07 15:59 | 41.12477 | 2.44715 | 15452 ft | 392 kts | 191° |
| 2026-05-07 16:00 | 41.09928 | 2.43425 | 16083 ft | 395 kts | 210° |
| 2026-05-07 16:00 | 41.07843 | 2.41050 | 16768 ft | 399 kts | 229° |
| 2026-05-07 16:00 | 41.06403 | 2.37960 | 17443 ft | 402 kts | 242° |
| 2026-05-07 16:00 | 41.05183 | 2.34607 | 18056 ft | 406 kts | 243° |
| 2026-05-07 16:01 | 41.03979 | 2.31215 | 18600 ft | 409 kts | 243° |
| 2026-05-07 16:01 | 41.02756 | 2.27808 | 19135 ft | 411 kts | 243° |
| 2026-05-07 16:01 | 41.01512 | 2.24379 | 19579 ft | 415 kts | 243° |
| 2026-05-07 16:01 | 41.00252 | 2.20929 | 20079 ft | 417 kts | 243° |
| 2026-05-07 16:02 | 40.98984 | 2.17472 | 20587 ft | 418 kts | 243° |
| 2026-05-07 16:02 | 40.97706 | 2.13999 | 21081 ft | 420 kts | 243° |
| 2026-05-07 16:02 | 40.96423 | 2.10521 | 21571 ft | 422 kts | 243° |
| 2026-05-07 16:02 | 40.95132 | 2.07025 | 22047 ft | 424 kts | 242° |
| 2026-05-07 16:03 | 40.93832 | 2.03510 | 22513 ft | 426 kts | 242° |
| 2026-05-07 16:03 | 40.92528 | 1.99986 | 22964 ft | 428 kts | 242° |
| 2026-05-07 16:03 | 40.91216 | 1.96450 | 23383 ft | 430 kts | 242° |
| 2026-05-07 16:03 | 40.89897 | 1.92896 | 23756 ft | 431 kts | 242° |
| 2026-05-07 16:04 | 40.88573 | 1.89332 | 24093 ft | 433 kts | 242° |
| 2026-05-07 16:04 | 40.87242 | 1.85745 | 24378 ft | 436 kts | 242° |
| 2026-05-07 16:04 | 40.85905 | 1.82147 | 24717 ft | 437 kts | 241° |
| 2026-05-07 16:04 | 40.84559 | 1.78546 | 25058 ft | 438 kts | 241° |
| 2026-05-07 16:05 | 40.83210 | 1.74938 | 25387 ft | 439 kts | 241° |
| 2026-05-07 16:05 | 40.81857 | 1.71323 | 25710 ft | 440 kts | 241° |
| 2026-05-07 16:05 | 40.80498 | 1.67695 | 26017 ft | 441 kts | 240° |
| 2026-05-07 16:05 | 40.79138 | 1.64067 | 26318 ft | 442 kts | 240° |
| 2026-05-07 16:06 | 40.77774 | 1.60434 | 26593 ft | 443 kts | 240° |
| 2026-05-07 16:06 | 40.76403 | 1.56785 | 26866 ft | 444 kts | 240° |
| 2026-05-07 16:06 | 40.75033 | 1.53144 | 27243 ft | 442 kts | 240° |
| 2026-05-07 16:06 | 40.73673 | 1.49529 | 27806 ft | 437 kts | 240° |
| 2026-05-07 16:07 | 40.72332 | 1.45968 | 28356 ft | 432 kts | 239° |
| 2026-05-07 16:07 | 40.70998 | 1.42432 | 28825 ft | 429 kts | 239° |
| 2026-05-07 16:07 | 40.69671 | 1.38921 | 29267 ft | 427 kts | 239° |
| 2026-05-07 16:07 | 40.68349 | 1.35429 | 29723 ft | 425 kts | 239° |
| 2026-05-07 16:08 | 40.67051 | 1.32002 | 30142 ft | 422 kts | 239° |
| 2026-05-07 16:08 | 40.65743 | 1.28553 | 30527 ft | 420 kts | 239° |
| 2026-05-07 16:08 | 40.64441 | 1.25123 | 30897 ft | 418 kts | 239° |
| 2026-05-07 16:08 | 40.63140 | 1.21702 | 31269 ft | 416 kts | 239° |
| 2026-05-07 16:09 | 40.61847 | 1.18304 | 31657 ft | 414 kts | 239° |
| 2026-05-07 16:09 | 40.60558 | 1.14923 | 32037 ft | 412 kts | 238° |
| 2026-05-07 16:09 | 40.59275 | 1.11559 | 32380 ft | 412 kts | 239° |
| 2026-05-07 16:09 | 40.57984 | 1.08183 | 32687 ft | 412 kts | 239° |
| 2026-05-07 16:10 | 40.56699 | 1.04822 | 33050 ft | 411 kts | 238° |
| 2026-05-07 16:10 | 40.55336 | 1.01547 | 33453 ft | 406 kts | 234° |
| 2026-05-07 16:10 | 40.53710 | 0.98550 | 33851 ft | 401 kts | 228° |
| 2026-05-07 16:10 | 40.51928 | 0.95765 | 34192 ft | 398 kts | 226° |
| 2026-05-07 16:11 | 40.50071 | 0.93066 | 34438 ft | 398 kts | 225° |
| 2026-05-07 16:11 | 40.48177 | 0.90404 | 34630 ft | 399 kts | 224° |
| 2026-05-07 16:11 | 40.46267 | 0.87747 | 34823 ft | 400 kts | 225° |
| 2026-05-07 16:11 | 40.44355 | 0.85081 | 35003 ft | 402 kts | 225° |
| 2026-05-07 16:12 | 40.42440 | 0.82395 | 35239 ft | 403 kts | 225° |
| 2026-05-07 16:12 | 40.40532 | 0.79703 | 35470 ft | 403 kts | 226° |
| 2026-05-07 16:12 | 40.39270 | 0.77917 | 35620 ft | 403 kts | 226° |
| 2026-05-07 16:12 | 40.37362 | 0.75210 | 35843 ft | 405 kts | 226° |
| 2026-05-07 16:13 | 40.35438 | 0.72479 | 35842 ft | 411 kts | 226° |
| 2026-05-07 16:13 | 40.33493 | 0.69720 | 36023 ft | 412 kts | 226° |
| 2026-05-07 16:13 | 40.31550 | 0.66965 | 36296 ft | 412 kts | 226° |
| 2026-05-07 16:13 | 40.29606 | 0.64212 | 36564 ft | 411 kts | 226° |
| 2026-05-07 16:14 | 40.27664 | 0.61466 | 36797 ft | 411 kts | 227° |
| 2026-05-07 16:14 | 40.25716 | 0.58713 | 36940 ft | 412 kts | 227° |
| 2026-05-07 16:14 | 40.23766 | 0.55963 | 36937 ft | 412 kts | 227° |
| 2026-05-07 16:15 | 40.19866 | 0.50469 | 36944 ft | 413 kts | 227° |
| 2026-05-07 16:15 | 40.15956 | 0.44973 | 36948 ft | 413 kts | 227° |
| 2026-05-07 16:16 | 40.12044 | 0.39483 | 36952 ft | 413 kts | 227° |
| 2026-05-07 16:16 | 40.08118 | 0.33984 | 36950 ft | 415 kts | 227° |
| 2026-05-07 16:17 | 40.04160 | 0.28450 | 36936 ft | 418 kts | 227° |
| 2026-05-07 16:17 | 40.00193 | 0.22913 | 36938 ft | 418 kts | 227° |
| 2026-05-07 16:18 | 39.96218 | 0.17369 | 36938 ft | 419 kts | 227° |
| 2026-05-07 16:18 | 39.92238 | 0.11827 | 36938 ft | 419 kts | 227° |
| 2026-05-07 16:19 | 39.88257 | 0.06293 | 36938 ft | 419 kts | 227° |
| 2026-05-07 16:19 | 39.84275 | 0.00768 | 36940 ft | 419 kts | 227° |
| 2026-05-07 16:20 | 39.80286 | -0.04771 | 36917 ft | 420 kts | 228° |
| 2026-05-07 16:20 | 39.76276 | -0.10321 | 36936 ft | 422 kts | 228° |
| 2026-05-07 16:21 | 39.72247 | -0.15857 | 36934 ft | 421 kts | 228° |
| 2026-05-07 16:21 | 39.68223 | -0.21386 | 36937 ft | 421 kts | 228° |
| 2026-05-07 16:22 | 39.64198 | -0.26915 | 36937 ft | 421 kts | 228° |
| 2026-05-07 16:22 | 39.60166 | -0.32445 | 36938 ft | 421 kts | 228° |
| 2026-05-07 16:23 | 39.56137 | -0.37961 | 36939 ft | 421 kts | 228° |
| 2026-05-07 16:23 | 39.52138 | -0.43425 | 36940 ft | 420 kts | 228° |
| 2026-05-07 16:24 | 39.48215 | -0.49026 | 36940 ft | 419 kts | 232° |
| 2026-05-07 16:24 | 39.44631 | -0.54981 | 36937 ft | 419 kts | 233° |
| 2026-05-07 16:25 | 39.41111 | -0.60993 | 36936 ft | 419 kts | 234° |
| 2026-05-07 16:25 | 39.37596 | -0.67008 | 36939 ft | 419 kts | 233° |
| 2026-05-07 16:26 | 39.34071 | -0.73015 | 36933 ft | 419 kts | 234° |
| 2026-05-07 16:26 | 39.30548 | -0.79011 | 36957 ft | 419 kts | 235° |
| 2026-05-07 16:27 | 39.27020 | -0.85005 | 36953 ft | 420 kts | 234° |
| 2026-05-07 16:27 | 39.23468 | -0.90986 | 36954 ft | 419 kts | 234° |
| 2026-05-07 16:28 | 39.19922 | -0.96955 | 36960 ft | 420 kts | 234° |
| 2026-05-07 16:28 | 39.16373 | -1.02930 | 36961 ft | 420 kts | 234° |
| 2026-05-07 16:29 | 39.12822 | -1.08900 | 36968 ft | 420 kts | 234° |
| 2026-05-07 16:29 | 39.09270 | -1.14860 | 36982 ft | 419 kts | 234° |
| 2026-05-07 16:30 | 39.05721 | -1.20802 | 36965 ft | 418 kts | 235° |
| 2026-05-07 16:30 | 39.02180 | -1.26723 | 36975 ft | 417 kts | 235° |
| 2026-05-07 16:31 | 38.98640 | -1.32632 | 36972 ft | 417 kts | 235° |
| 2026-05-07 16:31 | 38.95121 | -1.38493 | 36977 ft | 417 kts | 235° |
| 2026-05-07 16:32 | 38.91571 | -1.44395 | 36977 ft | 417 kts | 235° |
| 2026-05-07 16:32 | 38.88017 | -1.50293 | 36953 ft | 417 kts | 235° |
| 2026-05-07 16:33 | 38.84465 | -1.56176 | 36983 ft | 416 kts | 237° |
| 2026-05-07 16:33 | 38.80938 | -1.62050 | 36983 ft | 416 kts | 237° |
| 2026-05-07 16:34 | 38.77384 | -1.67901 | 36986 ft | 416 kts | 236° |
| 2026-05-07 16:34 | 38.73828 | -1.73741 | 36981 ft | 416 kts | 236° |
| 2026-05-07 16:35 | 38.70276 | -1.79577 | 36979 ft | 416 kts | 236° |
| 2026-05-07 16:35 | 38.66717 | -1.85417 | 36973 ft | 416 kts | 236° |
| 2026-05-07 16:36 | 38.63160 | -1.91241 | 36918 ft | 415 kts | 238° |
| 2026-05-07 16:36 | 38.59627 | -1.97051 | 36970 ft | 413 kts | 238° |
| 2026-05-07 16:37 | 38.56086 | -2.02821 | 36970 ft | 412 kts | 238° |
| 2026-05-07 16:37 | 38.52538 | -2.08582 | 36969 ft | 413 kts | 238° |
| 2026-05-07 16:38 | 38.48994 | -2.14342 | 36966 ft | 413 kts | 238° |
| 2026-05-07 16:38 | 38.45446 | -2.20104 | 36966 ft | 413 kts | 238° |
| 2026-05-07 16:39 | 38.41900 | -2.25854 | 36964 ft | 413 kts | 238° |
| 2026-05-07 16:39 | 38.38351 | -2.31598 | 36965 ft | 412 kts | 238° |
| 2026-05-07 16:40 | 38.34648 | -2.37160 | 36961 ft | 412 kts | 234° |
| 2026-05-07 16:40 | 38.30737 | -2.42493 | 36962 ft | 413 kts | 233° |
| 2026-05-07 16:41 | 38.26780 | -2.47792 | 36954 ft | 413 kts | 233° |
| 2026-05-07 16:41 | 38.22823 | -2.53078 | 36952 ft | 412 kts | 233° |
| 2026-05-07 16:42 | 38.18875 | -2.58353 | 36948 ft | 411 kts | 233° |
| 2026-05-07 16:42 | 38.14929 | -2.63631 | 36939 ft | 412 kts | 233° |
| 2026-05-07 16:43 | 38.10985 | -2.68886 | 36944 ft | 410 kts | 233° |
| 2026-05-07 16:43 | 38.07053 | -2.74113 | 36947 ft | 409 kts | 233° |
| 2026-05-07 16:44 | 38.03131 | -2.79329 | 36940 ft | 409 kts | 233° |
| 2026-05-07 16:44 | 37.99203 | -2.84544 | 36941 ft | 409 kts | 233° |
| 2026-05-07 16:45 | 37.95298 | -2.89720 | 36941 ft | 409 kts | 233° |
| 2026-05-07 16:45 | 37.91355 | -2.94932 | 36910 ft | 409 kts | 233° |
| 2026-05-07 16:46 | 37.87415 | -3.00131 | 36941 ft | 409 kts | 233° |
| 2026-05-07 16:46 | 37.83479 | -3.05318 | 36919 ft | 409 kts | 233° |
| 2026-05-07 16:47 | 37.79534 | -3.10511 | 36930 ft | 409 kts | 233° |
| 2026-05-07 16:47 | 37.75592 | -3.15692 | 36929 ft | 409 kts | 233° |
| 2026-05-07 16:48 | 37.71643 | -3.20878 | 36925 ft | 410 kts | 233° |
| 2026-05-07 16:48 | 37.67693 | -3.26051 | 36920 ft | 409 kts | 233° |
| 2026-05-07 16:49 | 37.63737 | -3.31217 | 36921 ft | 409 kts | 232° |
| 2026-05-07 16:49 | 37.59783 | -3.36377 | 36918 ft | 409 kts | 232° |
| 2026-05-07 16:50 | 37.55826 | -3.41535 | 36922 ft | 409 kts | 232° |
| 2026-05-07 16:50 | 37.51865 | -3.46689 | 36923 ft | 409 kts | 232° |
| 2026-05-07 16:51 | 37.47907 | -3.51829 | 36911 ft | 409 kts | 232° |
| 2026-05-07 16:51 | 37.43946 | -3.56965 | 36914 ft | 409 kts | 232° |
| 2026-05-07 16:52 | 37.39980 | -3.62099 | 36915 ft | 409 kts | 232° |
| 2026-05-07 16:52 | 37.36017 | -3.67222 | 36900 ft | 409 kts | 232° |
| 2026-05-07 16:53 | 37.32051 | -3.72342 | 36902 ft | 409 kts | 232° |
| 2026-05-07 16:53 | 37.28075 | -3.77464 | 36902 ft | 409 kts | 232° |
| 2026-05-07 16:54 | 37.24098 | -3.82580 | 36880 ft | 409 kts | 232° |
| 2026-05-07 16:54 | 37.20127 | -3.87678 | 36885 ft | 408 kts | 232° |
| 2026-05-07 16:55 | 37.16156 | -3.92769 | 36870 ft | 408 kts | 232° |
| 2026-05-07 16:55 | 37.12186 | -3.97853 | 36891 ft | 408 kts | 232° |
| 2026-05-07 16:56 | 37.08211 | -4.02934 | 36897 ft | 408 kts | 232° |
| 2026-05-07 16:56 | 37.02243 | -4.10548 | 36898 ft | 409 kts | 232° |
| 2026-05-07 16:57 | 36.98261 | -4.15613 | 36901 ft | 408 kts | 232° |
| 2026-05-07 16:57 | 36.94278 | -4.20678 | 36910 ft | 408 kts | 232° |
| 2026-05-07 16:58 | 36.90321 | -4.25702 | 36910 ft | 409 kts | 232° |
| 2026-05-07 16:58 | 36.86337 | -4.30752 | 36913 ft | 408 kts | 232° |
| 2026-05-07 16:59 | 36.82990 | -4.34980 | 36906 ft | 409 kts | 231° |
| 2026-05-07 16:59 | 36.78440 | -4.39348 | 36520 ft | 409 kts | 221° |
| 2026-05-07 17:00 | 36.76073 | -4.41299 | 35474 ft | 407 kts | 220° |
| 2026-05-07 17:00 | 36.73685 | -4.43209 | 34245 ft | 409 kts | 220° |
| 2026-05-07 17:00 | 36.71276 | -4.45108 | 32838 ft | 411 kts | 220° |
| 2026-05-07 17:00 | 36.68853 | -4.47011 | 31241 ft | 414 kts | 219° |
| 2026-05-07 17:01 | 36.66405 | -4.48939 | 29491 ft | 419 kts | 218° |
| 2026-05-07 17:01 | 36.63922 | -4.50888 | 27529 ft | 424 kts | 218° |
| 2026-05-07 17:01 | 36.61422 | -4.52848 | 25602 ft | 426 kts | 218° |
| 2026-05-07 17:01 | 36.58911 | -4.54833 | 24256 ft | 426 kts | 218° |
| 2026-05-07 17:02 | 36.56424 | -4.56803 | 23863 ft | 425 kts | 218° |
| 2026-05-07 17:02 | 36.53958 | -4.58754 | 23432 ft | 416 kts | 217° |
| 2026-05-07 17:02 | 36.51550 | -4.60652 | 22777 ft | 405 kts | 217° |
| 2026-05-07 17:02 | 36.49200 | -4.62503 | 22199 ft | 394 kts | 217° |
| 2026-05-07 17:03 | 36.46932 | -4.64290 | 21653 ft | 390 kts | 217° |
| 2026-05-07 17:03 | 36.44645 | -4.66098 | 21100 ft | 390 kts | 217° |
| 2026-05-07 17:03 | 36.42361 | -4.67903 | 20534 ft | 388 kts | 217° |
| 2026-05-07 17:03 | 36.40092 | -4.69693 | 19967 ft | 385 kts | 217° |
| 2026-05-07 17:04 | 36.37841 | -4.71466 | 19440 ft | 381 kts | 217° |
| 2026-05-07 17:04 | 36.35609 | -4.73220 | 18891 ft | 378 kts | 217° |
| 2026-05-07 17:04 | 36.33398 | -4.74957 | 18333 ft | 375 kts | 217° |
| 2026-05-07 17:04 | 36.31202 | -4.76681 | 17719 ft | 372 kts | 217° |
| 2026-05-07 17:05 | 36.29030 | -4.78387 | 17128 ft | 369 kts | 216° |
| 2026-05-07 17:05 | 36.26862 | -4.80088 | 16539 ft | 368 kts | 216° |
| 2026-05-07 17:05 | 36.24700 | -4.81785 | 15953 ft | 367 kts | 216° |
| 2026-05-07 17:05 | 36.22546 | -4.83474 | 15380 ft | 366 kts | 216° |
| 2026-05-07 17:06 | 36.20399 | -4.85156 | 14805 ft | 365 kts | 215° |
| 2026-05-07 17:06 | 36.18255 | -4.86833 | 14206 ft | 364 kts | 214° |
| 2026-05-07 17:06 | 36.16119 | -4.88503 | 13594 ft | 363 kts | 214° |
| 2026-05-07 17:06 | 36.13993 | -4.90171 | 12931 ft | 361 kts | 214° |
| 2026-05-07 17:07 | 36.11880 | -4.91833 | 12331 ft | 357 kts | 214° |
| 2026-05-07 17:07 | 36.09798 | -4.93479 | 11735 ft | 353 kts | 214° |
| 2026-05-07 17:07 | 36.07742 | -4.95112 | 11162 ft | 350 kts | 214° |
| 2026-05-07 17:07 | 36.05707 | -4.96723 | 10663 ft | 343 kts | 214° |
| 2026-05-07 17:08 | 36.03744 | -4.98275 | 10419 ft | 327 kts | 214° |
| 2026-05-07 17:08 | 36.01874 | -4.99751 | 10181 ft | 312 kts | 214° |
| 2026-05-07 17:08 | 36.00087 | -5.01161 | 9976 ft | 298 kts | 214° |
| 2026-05-07 17:08 | 35.98375 | -5.02512 | 9749 ft | 287 kts | 214° |
| 2026-05-07 17:09 | 35.96707 | -5.03828 | 9374 ft | 281 kts | 214° |
| 2026-05-07 17:09 | 35.95071 | -5.05120 | 8958 ft | 278 kts | 214° |
| 2026-05-07 17:09 | 35.93449 | -5.06400 | 8529 ft | 275 kts | 213° |
| 2026-05-07 17:09 | 35.91844 | -5.07666 | 8105 ft | 273 kts | 213° |
| 2026-05-07 17:10 | 35.90252 | -5.08920 | 7686 ft | 270 kts | 213° |
| 2026-05-07 17:10 | 35.88676 | -5.10161 | 7282 ft | 267 kts | 213° |
| 2026-05-07 17:10 | 35.87121 | -5.11391 | 6878 ft | 265 kts | 213° |
| 2026-05-07 17:10 | 35.85572 | -5.12614 | 6452 ft | 263 kts | 214° |